Terminal Aerodrome Forecast
Issued by NWS Memphis, TN

Current Version | Previous Version | Text Only | Print | Product List | Glossary On
Versions: 1 2 3 4 5 6 7 8 9 10 11 12 13 14 15 16
000
FTUS44 KMEG 291732
TAFMKL
TAF
KMKL 291732Z 2918/3018 17011G18KT P6SM OVC035
      TEMPO 2918/2921 OVC030
     FM292200 19011KT P6SM SCT035 OVC150
     FM300200 22007KT P6SM VCTS SCT015CB OVC030
      TEMPO 3003/3006 4SM -TSRA SCT005 OVC015CB
     FM300900 33004KT 6SM BR SKC
     FM301600 01005KT P6SM FEW035=

USA.gov is the U.S. government's official web portal to all federal, state and local government web resources and services.